Time;durP1;ratioP1;P1;durP2;ratioP2;P2;SDS_P1;SDS_P2;PMS_P1;PMS_P2;Temp;Humidity;BMP_temperature;BMP_pressure;BME280_temperature;BME280_humidity;BME280_pressure;Samples;Min_cycle;Max_cycle;Signal;HPM_P1;HPM_P2
2022/06/30 00:00:30;;;;;;;15.35;13.88;;;;;;;17.04;100.00;100930.13;5032157;28;20064;-54
2022/06/30 00:02:55;;;;;;;15.35;13.77;;;;;;;17.00;100.00;100933.91;5030922;28;20072;-56
2022/06/30 00:05:21;;;;;;;18.30;14.30;;;;;;;16.97;100.00;100918.97;5032239;28;20122;-55
2022/06/30 00:07:46;;;;;;;16.38;14.23;;;;;;;17.30;100.00;100969.38;5032228;28;20474;-52
2022/06/30 00:10:12;;;;;;;16.08;14.05;;;;;;;17.31;100.00;100973.72;5032319;28;20417;-51
2022/06/30 00:12:38;;;;;;;16.95;15.25;;;;;;;17.29;100.00;100970.31;5032384;28;20037;-52
2022/06/30 00:15:04;;;;;;;17.67;14.77;;;;;;;16.99;100.00;100913.59;5032214;28;20038;-52
2022/06/30 00:17:29;;;;;;;16.92;15.23;;;;;;;17.31;100.00;100963.09;5030846;28;20029;-50
2022/06/30 00:19:55;;;;;;;16.75;15.15;;;;;;;16.94;100.00;100899.66;5032042;28;20105;-51
2022/06/30 00:22:20;;;;;;;16.08;14.38;;;;;;;17.22;100.00;100953.84;5031907;28;20449;-52
2022/06/30 00:24:45;;;;;;;16.88;15.15;;;;;;;16.87;100.00;100899.16;5031737;28;20061;-55
2022/06/30 00:27:11;;;;;;;17.40;15.57;;;;;;;17.10;100.00;100941.28;5031976;28;20129;-49
2022/06/30 00:29:37;;;;;;;17.67;15.88;;;;;;;16.77;100.00;100880.25;4997860;28;20067;-51
2022/06/30 00:32:02;;;;;;;19.67;14.48;;;;;;;17.11;100.00;100971.38;5031924;28;20045;-49
2022/06/30 00:34:28;;;;;;;16.25;14.55;;;;;;;16.73;100.00;100888.47;5031886;28;20030;-51
2022/06/30 00:36:53;;;;;;;19.20;16.13;;;;;;;17.06;100.00;100938.88;5031824;28;20040;-51
2022/06/30 00:39:19;;;;;;;17.80;15.93;;;;;;;16.94;100.00;100924.47;5032140;28;20136;-52
2022/06/30 00:41:44;;;;;;;18.15;16.30;;;;;;;17.02;100.00;100948.81;5031879;28;20033;-51
2022/06/30 00:44:13;;;;;;;17.95;15.80;;;;;;;16.92;100.00;100929.03;5014084;28;20033;-52
2022/06/30 00:46:39;;;;;;;19.25;17.45;;;;;;;16.58;100.00;100876.06;5031760;28;20033;-51
2022/06/30 00:49:08;;;;;;;18.75;16.55;;;;;;;16.99;100.00;100938.34;5030472;28;20088;-51
2022/06/30 00:51:33;;;;;;;20.10;17.98;;;;;;;16.93;100.00;100928.06;5030639;28;20041;-51
2022/06/30 00:54:03;;;;;;;19.75;17.70;;;;;;;17.04;100.00;100932.78;5031822;28;20535;-55
2022/06/30 00:56:29;;;;;;;20.60;18.52;;;;;;;17.02;100.00;100911.59;5030375;28;20030;-54
2022/06/30 00:58:57;;;;;;;20.25;18.25;;;;;;;16.73;100.00;100868.06;5031862;28;20044;-52
2022/06/30 01:01:23;;;;;;;19.95;18.13;;;;;;;16.80;100.00;100868.56;5031424;28;20076;-57
2022/06/30 01:03:50;;;;;;;20.92;18.92;;;;;;;16.73;100.00;100856.56;5031446;28;20037;-53
2022/06/30 01:06:17;;;;;;;23.23;20.80;;;;;;;17.07;100.00;100912.19;5031454;28;20468;-54
2022/06/30 01:08:42;;;;;;;23.73;21.42;;;;;;;17.10;100.00;100917.34;5032011;28;20033;-50
2022/06/30 01:13:52;;;;;;;25.00;22.60;;;;;;;17.04;100.00;100906.19;5030685;28;20044;-50
2022/06/30 01:16:19;;;;;;;24.85;22.25;;;;;;;16.97;100.00;100900.38;5029866;28;20037;-49
2022/06/30 01:18:45;;;;;;;27.42;24.63;;;;;;;17.09;100.00;100928.91;5031511;28;20169;-51
2022/06/30 01:21:10;;;;;;;27.33;24.65;;;;;;;17.12;100.00;100950.00;5031456;28;20064;-49
2022/06/30 01:23:35;;;;;;;23.60;21.38;;;;;;;17.23;100.00;100944.91;5013613;28;20045;-50
2022/06/30 01:26:01;;;;;;;23.23;20.88;;;;;;;17.18;100.00;100914.22;5030025;28;20037;-50
2022/06/30 01:28:26;;;;;;;23.15;20.80;;;;;;;17.35;100.00;100944.22;5031447;28;20444;-51
2022/06/30 01:30:52;;;;;;;25.65;21.02;;;;;;;17.48;100.00;100964.78;5031269;28;20449;-51
2022/06/30 01:33:17;;;;;;;22.15;19.88;;;;;;;17.55;100.00;100966.16;5029793;28;20391;-51
2022/06/30 01:35:42;;;;;;;23.38;19.80;;;;;;;17.65;100.00;100970.88;5031451;28;20060;-52
2022/06/30 01:38:08;;;;;;;21.70;19.67;;;;;;;17.34;100.00;100923.00;5031237;28;20052;-49
2022/06/30 01:40:35;;;;;;;20.50;18.45;;;;;;;17.36;100.00;100924.66;5031322;28;20034;-49
2022/06/30 01:43:03;;;;;;;21.88;18.73;;;;;;;17.40;100.00;100942.13;5031146;28;20067;-53
2022/06/30 01:45:28;;;;;;;20.05;18.02;;;;;;;17.59;100.00;100986.34;5031207;28;20031;-56
2022/06/30 01:47:55;;;;;;;20.70;18.67;;;;;;;17.20;100.00;100920.31;5029739;28;20124;-56
2022/06/30 01:50:24;;;;;;;20.08;17.65;;;;;;;17.41;100.00;100940.34;5029902;28;20030;-50
2022/06/30 01:52:50;;;;;;;20.38;17.50;;;;;;;17.47;100.00;100971.03;5029641;28;20060;-49
2022/06/30 01:55:16;;;;;;;21.33;19.00;;;;;;;17.47;100.00;100998.53;5031306;28;20025;-50
2022/06/30 01:57:41;;;;;;;18.65;16.60;;;;;;;17.43;100.00;100973.03;5029914;28;20404;-49
2022/06/30 02:00:12;;;;;;;21.27;18.45;;;;;;;17.39;100.00;100967.03;5029662;28;20124;-53
2022/06/30 02:02:38;;;;;;;20.48;17.17;;;;;;;16.99;100.00;100911.75;5029759;28;20076;-52
2022/06/30 02:05:04;;;;;;;20.33;18.13;;;;;;;17.04;100.00;100930.13;5029654;28;20034;-55
2022/06/30 02:07:30;;;;;;;19.95;17.85;;;;;;;17.35;100.00;100977.94;5029583;28;20396;-51
2022/06/30 02:09:55;;;;;;;18.17;16.38;;;;;;;17.30;100.00;100975.56;5031085;28;20045;-55
2022/06/30 02:15:07;;;;;;;18.77;16.77;;;;;;;17.20;100.00;100974.38;5030194;28;20103;-51
2022/06/30 02:17:32;;;;;;;21.95;15.98;;;;;;;17.22;100.00;100991.09;5029782;28;20044;-49
2022/06/30 02:19:57;;;;;;;17.50;15.75;;;;;;;17.18;100.00;100984.25;5030739;28;20029;-54
2022/06/30 02:22:23;;;;;;;19.02;17.08;;;;;;;17.11;100.00;100974.03;5030897;28;20033;-52
2022/06/30 02:24:48;;;;;;;18.52;16.45;;;;;;;17.07;100.00;100960.06;5031953;28;20053;-49
2022/06/30 02:27:13;;;;;;;19.35;16.67;;;;;;;16.69;100.00;100909.06;5034253;28;20280;-49
2022/06/30 02:29:39;;;;;;;18.05;16.20;;;;;;;16.96;100.00;100958.97;5034396;28;20033;-47
2022/06/30 02:32:05;;;;;;;17.42;15.70;;;;;;;16.99;100.00;100964.09;5034254;28;20030;-52
2022/06/30 02:34:30;;;;;;;19.23;17.20;;;;;;;16.94;100.00;100961.69;5034619;28;20423;-52
2022/06/30 02:36:56;;;;;;;19.25;16.58;;;;;;;16.86;100.00;100955.97;5032890;28;20068;-52
2022/06/30 02:39:21;;;;;;;18.80;16.55;;;;;;;16.85;100.00;100956.91;5034028;28;20476;-53
2022/06/30 02:41:47;;;;;;;18.05;16.52;;;;;;;16.65;100.00;100922.59;5033945;28;20041;-48
2022/06/30 02:44:13;;;;;;;18.27;16.38;;;;;;;16.42;100.00;100894.63;5032832;28;20069;-50
2022/06/30 02:46:38;;;;;;;20.33;17.48;;;;;;;16.67;100.00;100944.63;5033859;28;20033;-48
2022/06/30 02:49:03;;;;;;;21.35;17.70;;;;;;;16.70;100.00;100961.25;5032783;28;20049;-49
2022/06/30 02:51:29;;;;;;;19.27;17.27;;;;;;;16.67;100.00;100952.59;5032713;28;20041;-48
2022/06/30 02:53:55;;;;;;;22.60;17.92;;;;;;;16.55;100.00;100940.00;5033915;28;20067;-54
2022/06/30 02:56:20;;;;;;;19.25;17.45;;;;;;;16.38;100.00;100921.44;5032446;28;20061;-48
2022/06/30 02:58:45;;;;;;;22.35;17.75;;;;;;;16.56;100.00;100962.97;5034163;28;20037;-52
2022/06/30 03:01:11;;;;;;;18.73;16.85;;;;;;;16.43;100.00;100956.59;5034048;28;20392;-53
2022/06/30 03:03:36;;;;;;;19.15;17.17;;;;;;;16.52;100.00;100974.69;5032734;28;20124;-53
2022/06/30 03:06:02;;;;;;;19.00;16.60;;;;;;;16.50;100.00;100956.16;5033875;28;20033;-54
2022/06/30 03:08:27;;;;;;;17.73;15.68;;;;;;;16.13;100.00;100898.03;5033717;28;20877;-53
2022/06/30 03:10:52;;;;;;;20.80;16.98;;;;;;;16.43;100.00;100957.47;5032293;28;20472;-52
2022/06/30 03:13:18;;;;;;;16.17;14.52;;;;;;;16.36;100.00;100955.19;5033744;28;20477;-49
2022/06/30 03:15:43;;;;;;;15.18;13.68;;;;;;;16.40;100.00;100952.31;5033772;28;20103;-51
2022/06/30 03:18:08;;;;;;;15.65;14.05;;;;;;;15.98;100.00;100888.22;5033715;28;20553;-53
2022/06/30 03:20:33;;;;;;;15.38;13.75;;;;;;;16.02;100.00;100889.78;5033688;28;20029;-51
2022/06/30 03:22:59;;;;;;;16.63;13.30;;;;;;;16.34;100.00;100952.66;5033676;28;20037;-49
2022/06/30 03:25:24;;;;;;;16.00;11.77;;;;;;;16.36;100.00;100956.06;5033175;28;20053;-48
2022/06/30 03:27:49;;;;;;;16.95;12.23;;;;;;;16.34;100.00;100956.13;5033113;28;20468;-50
2022/06/30 03:30:15;;;;;;;13.93;11.27;;;;;;;16.34;100.00;100950.00;5033436;28;20375;-53
2022/06/30 03:32:40;;;;;;;13.30;10.70;;;;;;;16.03;100.00;100895.00;5032042;28;20029;-54
2022/06/30 03:35:06;;;;;;;13.40;10.77;;;;;;;16.19;100.00;100924.25;5033150;28;20029;-53
2022/06/30 03:37:31;;;;;;;11.93;10.38;;;;;;;15.92;100.00;100868.19;5031248;28;20029;-53
2022/06/30 03:39:57;;;;;;;12.65;9.50;;;;;;;16.25;100.00;100946.03;5033122;28;20102;-50
2022/06/30 03:42:23;;;;;;;11.27;9.85;;;;;;;15.87;100.00;100883.50;5033255;28;20061;-53
2022/06/30 03:44:48;;;;;;;13.52;9.88;;;;;;;15.84;100.00;100877.50;5033305;28;20040;-51
2022/06/30 03:47:14;;;;;;;15.98;9.00;;;;;;;16.16;100.00;100938.56;5031752;28;20456;-57
2022/06/30 03:49:39;;;;;;;11.20;8.57;;;;;;;16.09;100.00;100925.66;5031776;28;20045;-56
2022/06/30 03:52:05;;;;;;;9.82;8.98;;;;;;;16.11;100.00;100931.78;5032958;28;20075;-50
2022/06/30 03:54:30;;;;;;;11.20;9.25;;;;;;;15.84;100.00;100896.06;5032828;28;20164;-49
2022/06/30 03:56:55;;;;;;;9.95;8.20;;;;;;;16.14;100.00;100960.81;5032563;28;20034;-52
2022/06/30 03:59:21;;;;;;;12.95;8.82;;;;;;;15.75;100.00;100885.00;5032993;28;20124;-52
2022/06/30 04:01:46;;;;;;;10.82;8.32;;;;;;;15.88;100.00;100901.13;5032639;28;20448;-48
2022/06/30 04:04:11;;;;;;;10.18;8.18;;;;;;;16.05;100.00;100926.78;5032377;28;20053;-51
2022/06/30 04:06:37;;;;;;;9.30;7.78;;;;;;;16.14;100.00;100948.38;5031113;28;20112;-51
2022/06/30 04:09:02;;;;;;;10.00;7.60;;;;;;;16.09;100.00;100931.84;5032807;28;20065;-52
2022/06/30 04:11:27;;;;;;;9.50;7.45;;;;;;;15.92;100.00;100901.81;5031221;28;20052;-49
2022/06/30 04:13:53;;;;;;;9.65;7.50;;;;;;;16.17;100.00;100950.88;5031534;28;20044;-50
2022/06/30 04:16:18;;;;;;;10.88;7.30;;;;;;;16.20;100.00;100944.53;5032757;28;20484;-54
2022/06/30 04:18:43;;;;;;;9.07;6.45;;;;;;;15.91;100.00;100889.47;5032484;28;20076;-56
2022/06/30 04:21:09;;;;;;;7.78;5.68;;;;;;;16.22;100.00;100972.75;5031219;28;20037;-50
2022/06/30 04:23:35;;;;;;;9.48;5.53;;;;;;;16.23;100.00;101001.00;5031031;28;20060;-51
2022/06/30 04:26:00;;;;;;;6.07;4.85;;;;;;;15.93;100.00;100923.00;5031138;28;20125;-55
2022/06/30 04:28:25;;;;;;;5.72;4.80;;;;;;;16.25;100.00;100966.41;5031005;28;20097;-56
2022/06/30 04:33:34;;;;;;;7.50;5.03;;;;;;;16.37;100.00;101004.75;5032303;28;20045;-51
2022/06/30 04:36:00;;;;;;;6.40;5.50;;;;;;;16.08;100.00;100951.38;5030986;28;20025;-50
2022/06/30 04:38:25;;;;;;;7.63;6.25;;;;;;;16.19;100.00;100938.38;5032235;28;20037;-55
2022/06/30 04:43:34;;;;;;;11.35;8.27;;;;;;;16.28;100.00;100937.91;5032222;28;20087;-52
2022/06/30 04:46:00;;;;;;;10.18;9.02;;;;;;;16.62;100.00;101005.16;5032173;28;20064;-56
2022/06/30 04:48:25;;;;;;;12.98;9.38;;;;;;;16.69;100.00;101019.84;5031561;28;20030;-52
2022/06/30 04:50:50;;;;;;;12.18;8.43;;;;;;;16.71;100.00;100996.69;5031679;28;20494;-51
2022/06/30 04:53:16;;;;;;;14.60;9.15;;;;;;;16.81;100.00;100996.06;5032155;28;20453;-53
2022/06/30 04:55:41;;;;;;;11.40;7.82;;;;;;;16.84;100.00;100997.75;5032050;28;20041;-53
2022/06/30 04:58:06;;;;;;;11.05;7.57;;;;;;;16.24;100.00;100893.84;5032077;28;20037;-54
2022/06/30 05:00:32;;;;;;;13.27;7.40;;;;;;;16.93;100.00;101013.16;5031969;28;20033;-49
2022/06/30 05:02:58;;;;;;;10.32;6.10;;;;;;;17.03;100.00;101021.47;5031688;28;20029;-56
2022/06/30 05:05:23;;;;;;;10.75;5.65;;;;;;;17.06;100.00;101005.34;5032175;28;20037;-51
2022/06/30 05:07:48;;;;;;;10.80;5.78;;;;;;;17.26;100.00;101023.69;5031999;28;20059;-51
2022/06/30 05:10:14;;;;;;;11.40;5.47;;;;;;;17.36;100.00;101022.25;5030312;28;20053;-55
2022/06/30 05:12:39;;;;;;;8.98;4.68;;;;;;;17.42;100.00;101020.06;5030497;28;20554;-52
2022/06/30 05:15:05;;;;;;;8.85;4.15;;;;;;;17.45;100.00;101025.19;5031829;28;20095;-57
2022/06/30 05:17:33;;;;;;;8.15;4.43;;;;;;;17.39;100.00;101012.28;5030331;28;20026;-56
2022/06/30 05:19:58;;;;;;;6.43;4.38;;;;;;;17.48;100.00;101023.34;5012525;28;20037;-53
2022/06/30 05:22:24;;;;;;;7.15;5.07;;;;;;;17.36;100.00;101022.25;5030351;28;20045;-54
2022/06/30 05:27:34;;;;;;;6.88;4.93;;;;;;;17.63;100.00;101025.97;5031586;28;20060;-52
2022/06/30 05:30:00;;;;;;;8.05;4.60;;;;;;;17.56;100.00;100992.69;5030159;28;20039;-53
2022/06/30 05:32:25;;;;;;;6.57;3.25;;;;;;;17.73;100.00;100976.56;5030107;28;20120;-53
2022/06/30 05:34:51;;;;;;;6.53;3.05;;;;;;;18.19;100.00;101040.38;5031418;28;20072;-49
2022/06/30 05:37:16;;;;;;;4.85;2.50;;;;;;;18.05;100.00;101035.03;5031620;28;20404;-47
2022/06/30 05:39:41;;;;;;;8.98;2.55;;;;;;;17.94;100.00;101039.22;5030220;28;20029;-49
2022/06/30 05:42:07;;;;;;;3.65;2.13;;;;;;;17.58;100.00;100996.13;5031296;28;20037;-54
2022/06/30 05:44:32;;;;;;;5.25;2.50;;;;;;;17.42;100.00;100982.81;5029871;28;20034;-53
2022/06/30 05:46:58;;;;;;;4.22;2.33;;;;;;;17.55;100.00;100987.44;5031082;28;20121;-54
2022/06/30 05:49:23;;;;;;;3.67;2.17;;;;;;;17.41;100.00;100956.28;5029688;28;20477;-53
2022/06/30 05:51:48;;;;;;;4.93;2.28;;;;;;;17.54;100.00;100975.06;5031337;28;20442;-56
2022/06/30 05:54:14;;;;;;;5.63;2.38;;;;;;;17.58;100.00;100989.94;5031241;28;20076;-50
2022/06/30 05:56:39;;;;;;;6.20;2.20;;;;;;;17.98;100.00;101043.38;5013643;28;20037;-53
2022/06/30 05:59:04;;;;;;;7.28;1.73;;;;;;;18.02;100.00;101028.09;5031424;28;20419;-49
2022/06/30 06:01:30;;;;;;;5.63;1.95;;;;;;;17.73;100.00;100973.06;5033606;28;20029;-49
2022/06/30 06:03:55;;;;;;;5.63;1.80;;;;;;;17.75;100.00;100974.66;5034868;28;20063;-50
2022/06/30 06:06:21;;;;;;;4.05;1.85;;;;;;;18.05;100.00;101027.91;5034656;28;20119;-50
2022/06/30 06:08:46;;;;;;;7.60;2.30;;;;;;;17.59;100.00;100976.53;5050069;28;20036;-48
2022/06/30 06:11:11;;;;;;;5.57;2.08;;;;;;;18.24;100.00;101033.81;5034726;28;20147;-53
2022/06/30 06:13:37;;;;;;;6.47;2.10;;;;;;;18.22;100.00;101027.75;5034369;28;20034;-53
2022/06/30 06:16:02;;;;;;;4.57;1.90;;;;;;;18.33;100.00;101035.94;5033169;28;20041;-54
2022/06/30 06:18:28;;;;;;;6.72;1.80;;;;;;;18.35;100.00;101042.03;5034460;28;20034;-53
2022/06/30 06:20:53;;;;;;;5.43;1.75;;;;;;;18.45;100.00;101039.66;5034352;28;20056;-53
2022/06/30 06:23:18;;;;;;;2.00;1.20;;;;;;;18.48;100.00;101055.44;5033245;28;20033;-53
2022/06/30 06:25:44;;;;;;;4.15;1.70;;;;;;;18.43;100.00;101029.09;5034254;28;20124;-52
2022/06/30 06:30:53;;;;;;;3.67;1.67;;;;;;;18.49;100.00;101009.22;5033116;28;20044;-51
2022/06/30 06:33:18;;;;;;;5.55;2.35;;;;;;;18.93;100.00;101062.44;5034462;28;20033;-54
2022/06/30 06:35:44;;;;;;;3.22;1.40;;;;;;;19.04;100.00;101058.13;5034333;28;20089;-55
2022/06/30 06:38:10;;;;;;;4.85;1.52;;;;;;;18.73;100.00;101007.69;5034330;28;20061;-53
2022/06/30 06:40:35;;;;;;;2.80;1.80;;;;;;;18.76;100.00;101010.16;5032898;28;20080;-52
2022/06/30 06:43:00;;;;;;;4.93;1.77;;;;;;;18.93;100.00;101020.63;5033994;28;20060;-49
2022/06/30 06:45:26;;;;;;;5.43;1.77;;;;;;;19.45;100.00;101079.50;5033834;28;20120;-54
2022/06/30 06:47:51;;;;;;;3.55;1.48;;;;;;;19.62;100.00;101081.06;5033740;28;20730;-49
2022/06/30 06:50:16;;;;;;;5.55;1.88;;;;;;;19.47;100.00;101029.53;5049020;28;20033;-49
2022/06/30 06:52:42;;;;;;;5.75;1.73;;;;;;;20.03;100.00;101087.16;5033917;28;20099;-56
2022/06/30 06:55:07;;;;;;;6.82;1.58;;;;;;;20.16;100.00;101098.75;5033914;28;20033;-53
2022/06/30 06:57:34;;;;;;;6.15;2.08;;;;;;;20.19;100.00;101076.31;5033952;28;20519;-53
2022/06/30 07:00:00;;;;;;;3.60;1.58;;;;;;;20.33;100.00;101080.72;5033606;28;20037;-52
2022/06/30 07:02:25;;;;;;;6.22;1.98;;;;;;;20.56;100.00;101099.56;5051050;28;20041;-51
2022/06/30 07:04:50;;;;;;;6.00;1.48;;;;;;;20.62;100.00;101117.00;5053523;28;20029;-53
2022/06/30 07:07:16;;;;;;;3.35;2.15;;;;;;;20.45;100.00;101059.34;5053612;28;20094;-50
2022/06/30 07:09:41;;;;;;;3.42;1.25;;;;;;;20.76;100.00;101115.06;5051593;28;20380;-51
2022/06/30 07:12:07;;;;;;;2.92;1.10;;;;;;;20.94;100.00;101128.13;5053415;28;20037;-51
2022/06/30 07:14:33;;;;;;;3.80;1.42;;;;;;;20.64;100.00;101066.94;5052246;28;20036;-48
2022/06/30 07:16:58;;;;;;;4.25;1.30;;;;;;;20.45;100.00;101062.03;5051906;28;20029;-50
2022/06/30 07:19:23;;;;;;;4.60;1.30;;;;;;;20.74;100.00;101100.09;5053611;28;20032;-50
2022/06/30 07:21:49;;;;;;;2.63;1.20;;;;;;;20.75;100.00;101089.28;5052971;28;20041;-49
2022/06/30 07:24:14;;;;;;;6.65;1.50;;;;;;;20.72;100.00;101068.09;5053472;28;20053;-54
2022/06/30 07:26:39;;;;;;;3.22;1.30;;;;;;;20.64;100.00;101083.84;5053223;28;20407;-52
2022/06/30 07:29:05;;;;;;;4.50;1.83;;;;;;;20.99;100.00;101134.00;5053023;28;20041;-51
2022/06/30 07:31:30;;;;;;;3.75;1.42;;;;;;;21.09;100.00;101143.13;5051862;28;20045;-50
2022/06/30 07:33:56;;;;;;;2.17;1.50;;;;;;;21.22;100.00;101142.13;5052584;28;20033;-53
2022/06/30 07:36:21;;;;;;;5.20;2.00;;;;;;;21.04;100.00;101089.91;5051747;28;20041;-57
2022/06/30 07:38:49;;;;;;;2.72;0.77;;;;;;;21.47;100.00;101130.50;5056508;28;20033;-51
2022/06/30 07:41:14;;;;;;;2.17;1.50;;;;;;;21.36;100.00;101092.97;5036560;28;20365;-47
2022/06/30 07:43:40;;;;;;;3.95;1.48;;;;;;;21.94;100.00;101155.66;5052897;28;20036;-51
2022/06/30 07:46:07;;;;;;;2.83;1.27;;;;;;;22.28;100.00;101161.03;5052763;28;20068;-52
2022/06/30 07:48:33;;;;;;;3.70;1.23;;;;;;;22.80;100.00;101165.09;5051320;28;20033;-54
2022/06/30 07:50:59;;;;;;;2.03;0.93;;;;;;;22.81;100.00;101103.25;5052902;28;20365;-52
2022/06/30 07:53:24;;;;;;;3.38;1.60;;;;;;;23.49;100.00;101174.81;5052583;28;20044;-52
2022/06/30 07:55:49;;;;;;;5.75;1.45;;;;;;;23.21;100.00;101175.25;5052692;28;20040;-55
2022/06/30 07:58:15;;;;;;;3.42;1.30;;;;;;;23.08;100.00;101136.94;5052685;28;20060;-50
2022/06/30 08:00:40;;;;;;;6.15;2.05;;;;;;;23.47;100.00;101134.59;5052470;28;20044;-49
2022/06/30 08:03:05;;;;;;;3.95;1.85;;;;;;;23.95;100.00;101140.47;5052732;28;20025;-46
2022/06/30 08:05:31;;;;;;;5.28;1.20;;;;;;;23.58;100.00;101170.50;5051197;28;20072;-53
2022/06/30 08:07:56;;;;;;;2.78;1.25;;;;;;;23.68;100.00;101134.69;5052643;28;20120;-50
2022/06/30 08:10:21;;;;;;;3.90;1.02;;;;;;;24.09;100.00;101150.06;5052547;28;20087;-54
2022/06/30 08:12:47;;;;;;;2.83;1.33;;;;;;;24.73;100.00;101190.38;5052527;28;20079;-48
2022/06/30 08:15:12;;;;;;;4.22;1.40;;;;;;;24.62;100.00;101177.84;5052252;28;20041;-50
2022/06/30 08:17:38;;;;;;;4.10;1.33;;;;;;;24.93;100.00;101144.63;5051350;28;20028;-52
2022/06/30 08:20:04;;;;;;;4.07;1.17;;;;;;;24.97;100.00;101155.97;5052412;28;20136;-54
2022/06/30 08:22:29;;;;;;;4.32;1.40;;;;;;;25.29;100.00;101212.41;5051732;28;20101;-58
2022/06/30 08:24:55;;;;;;;4.45;1.45;;;;;;;25.69;100.00;101213.31;5052111;28;20045;-52
2022/06/30 08:27:20;;;;;;;4.78;1.27;;;;;;;25.68;100.00;101225.09;5052060;28;20036;-51
2022/06/30 08:29:46;;;;;;;6.57;1.52;;;;;;;25.93;100.00;101205.72;5050843;28;20159;-51
2022/06/30 08:32:11;;;;;;;6.00;1.48;;;;;;;25.97;100.00;101215.25;5052126;28;20040;-49
2022/06/30 08:34:36;;;;;;;6.03;1.88;;;;;;;25.93;100.00;101191.38;5052057;28;20044;-50
2022/06/30 08:37:02;;;;;;;4.30;1.10;;;;;;;26.01;100.00;101202.31;5052054;28;20045;-49
2022/06/30 08:42:12;;;;;;;4.22;1.35;;;;;;;26.16;100.00;101209.03;5051720;28;20562;-52
2022/06/30 08:44:41;;;;;;;4.10;1.30;;;;;;;25.55;100.00;101157.09;5051957;28;20068;-48
2022/06/30 08:47:08;;;;;;;5.15;1.60;;;;;;;25.59;100.00;101177.41;5051533;28;20029;-47
2022/06/30 08:49:34;;;;;;;5.43;1.48;;;;;;;25.68;100.00;101214.31;5051480;28;20031;-47
2022/06/30 08:52:00;;;;;;;2.13;0.95;;;;;;;25.54;100.00;101177.78;5050346;28;20025;-51
2022/06/30 08:54:26;;;;;;;4.13;1.30;;;;;;;26.28;100.00;101224.09;5050367;28;20052;-53
2022/06/30 08:56:56;;;;;;;3.50;1.30;;;;;;;26.19;100.00;101230.34;5050247;28;20037;-52
2022/06/30 08:59:24;;;;;;;2.50;1.00;;;;;;;26.17;100.00;101222.41;5050328;28;20399;-50
2022/06/30 09:01:49;;;;;;;1.45;0.90;;;;;;;26.03;100.00;101217.38;5050346;28;20113;-50
2022/06/30 09:04:15;;;;;;;2.25;1.10;;;;;;;26.20;100.00;101180.78;5050109;28;20082;-49
2022/06/30 09:06:44;;;;;;;3.15;1.00;;;;;;;26.80;100.00;101223.69;5033610;28;20062;-52
2022/06/30 09:09:10;;;;;;;2.67;1.23;;;;;;;26.65;100.00;101240.44;5050641;28;20534;-46
2022/06/30 09:11:51;;;;;;;2.67;1.10;;;;;;;26.46;100.00;101200.81;5051504;28;20140;-49
2022/06/30 09:14:36;;;;;;;2.47;1.20;;;;;;;26.69;100.00;101231.91;5051604;28;20028;-53
2022/06/30 09:17:03;;;;;;;2.53;1.10;;;;;;;26.84;100.00;101221.56;5051257;28;20326;-50
2022/06/30 09:19:29;;;;;;;2.50;1.17;;;;;;;26.82;100.00;101194.66;5050210;28;20394;-50
2022/06/30 09:22:10;;;;;;;3.30;1.45;;;;;;;27.03;100.00;101226.91;5050968;28;20029;-50
2022/06/30 09:24:40;;;;;;;3.45;1.10;;;;;;;26.84;100.00;101229.66;5051944;28;20115;-50
2022/06/30 09:27:10;;;;;;;;;;;;;;;27.00;100.00;101235.28;5050531;28;20034;-52
2022/06/30 09:30:04;;;;;;;4.07;1.80;;;;;;;27.19;100.00;101235.25;5051336;28;19944;-55
2022/06/30 09:32:50;;;;;;;3.75;1.40;;;;;;;26.88;100.00;101241.03;5051536;28;20049;-49
2022/06/30 09:35:17;;;;;;;5.80;1.60;;;;;;;25.79;100.00;101197.16;5053012;28;20049;-51
2022/06/30 09:37:42;;;;;;;2.80;1.60;;;;;;;25.35;100.00;101193.00;5055058;28;20057;-48
2022/06/30 09:40:09;;;;;;;2.50;1.60;;;;;;;26.28;100.00;101197.09;5053587;28;20080;-53
2022/06/30 09:42:45;;;;;;;2.60;1.63;;;;;;;27.00;100.00;101242.56;5020727;28;20063;-55
2022/06/30 09:45:15;;;;;;;4.22;1.58;;;;;;;27.02;100.00;101233.31;5057277;28;20056;-48
2022/06/30 09:47:55;;;;;;;2.67;1.55;;;;;;;26.86;100.00;101197.94;5052397;28;20037;-45
2022/06/30 09:50:21;;;;;;;2.55;1.35;;;;;;;27.06;100.00;101253.63;5053633;28;20029;-52
2022/06/30 09:53:11;;;;;;;4.07;1.40;;;;;;;27.22;100.00;101248.47;5053741;28;20033;-50
2022/06/30 09:55:46;;;;;;;2.97;1.63;;;;;;;27.59;100.00;101234.97;5055883;28;20064;-52
2022/06/30 09:58:36;;;;;;;2.30;1.13;;;;;;;27.32;100.00;101252.00;5054922;28;20048;-55
2022/06/30 10:01:02;;;;;;;3.88;1.27;;;;;;;27.02;100.00;101218.94;5054853;28;20064;-52
2022/06/30 10:03:27;;;;;;;3.47;1.30;;;;;;;26.89;100.00;101238.16;5054688;28;20059;-51
2022/06/30 10:06:16;;;;;;;4.22;1.67;;;;;;;26.84;100.00;101232.34;5053536;28;20041;-50
2022/06/30 10:08:42;;;;;;;3.92;1.23;;;;;;;27.46;100.00;101255.25;5054697;28;20541;-50
2022/06/30 10:11:08;;;;;;;3.60;1.27;;;;;;;27.95;100.00;101235.94;5054495;28;20029;-51
2022/06/30 10:13:38;;;;;;;4.45;1.65;;;;;;;28.32;100.00;101255.66;5053331;28;20047;-47
2022/06/30 10:16:06;;;;;;;3.20;1.42;;;;;;;28.02;100.00;101219.94;5053885;28;20043;-50
2022/06/30 10:18:37;;;;;;;2.63;1.38;;;;;;;27.39;100.00;101272.03;5052997;28;20548;-48
2022/06/30 10:21:04;;;;;;;3.45;1.75;;;;;;;27.17;100.00;101272.41;5052783;28;20059;-54
2022/06/30 10:23:30;;;;;;;3.50;1.27;;;;;;;26.52;100.00;101223.69;5051369;28;20087;-52
2022/06/30 10:25:56;;;;;;;3.63;1.58;;;;;;;25.91;100.00;101256.25;5034752;28;20063;-48
2022/06/30 10:28:25;;;;;;;3.40;1.67;;;;;;;25.23;100.00;101248.84;5052255;28;20052;-47
2022/06/30 10:31:15;;;;;;;6.35;1.83;;;;;;;24.85;100.00;101248.59;5052537;28;20058;-52
2022/06/30 10:34:02;;;;;;;6.90;2.23;;;;;;;24.77;100.00;101242.97;5051417;28;20033;-51
2022/06/30 10:36:38;;;;;;;6.43;2.55;;;;;;;25.36;100.00;101237.84;5051150;28;20112;-49
2022/06/30 10:39:08;;;;;;;4.65;1.58;;;;;;;25.97;100.00;101209.00;5052197;28;20040;-52
2022/06/30 10:41:46;;;;;;;3.63;1.75;;;;;;;25.96;100.00;101221.63;5052467;28;20135;-50
2022/06/30 10:44:22;;;;;;;3.75;1.70;;;;;;;26.04;100.00;101243.34;5052149;28;20040;-50
2022/06/30 10:46:47;;;;;;;5.22;2.28;;;;;;;25.79;100.00;101265.44;5051230;28;20032;-51
2022/06/30 10:49:13;;;;;;;3.37;1.70;;;;;;;25.04;100.00;101213.72;5052129;28;20040;-52
2022/06/30 10:51:39;;;;;;;3.40;2.08;;;;;;;25.14;100.00;101207.38;5052009;28;20275;-48
2022/06/30 10:54:06;;;;;;;3.22;1.67;;;;;;;24.94;100.00;101243.28;5050739;28;20392;-52
2022/06/30 10:56:54;;;;;;;6.68;1.95;;;;;;;24.52;100.00;101244.19;5050620;28;20037;-51
2022/06/30 10:59:28;;;;;;;3.38;1.70;;;;;;;24.23;100.00;101245.78;5048602;28;20124;-48
2022/06/30 11:02:09;;;;;;;3.20;1.80;;;;;;;23.73;100.00;101247.22;5051795;28;20455;-48
2022/06/30 11:04:35;;;;;;;3.78;2.15;;;;;;;23.27;100.00;101249.97;5051939;28;20032;-51
2022/06/30 11:07:10;;;;;;;1.98;1.65;;;;;;;22.68;100.00;101195.59;5051817;28;20037;-49
2022/06/30 11:09:45;;;;;;;5.25;1.90;;;;;;;22.74;100.00;101238.91;5051718;28;20093;-49
2022/06/30 11:12:39;;;;;;;2.97;2.00;;;;;;;22.36;100.00;101239.09;5052085;28;20047;-51
2022/06/30 11:15:05;;;;;;;4.75;1.88;;;;;;;22.47;100.00;101243.66;5052910;28;20109;-49
2022/06/30 11:17:31;;;;;;;2.78;1.88;;;;;;;22.36;100.00;101244.44;5053265;28;20116;-48
2022/06/30 11:19:59;;;;;;;4.30;2.10;;;;;;;22.20;100.00;101241.22;5053080;28;20036;-51
2022/06/30 11:22:25;;;;;;;3.08;1.63;;;;;;;22.17;100.00;101217.31;5053209;28;20025;-48
2022/06/30 11:24:51;;;;;;;4.00;1.60;;;;;;;21.83;100.00;101170.66;5053086;28;20052;-52
2022/06/30 11:27:23;;;;;;;3.97;1.80;;;;;;;21.86;100.00;101175.78;5051526;28;20300;-48
2022/06/30 11:29:49;;;;;;;3.40;1.42;;;;;;;22.08;100.00;101226.03;5053143;28;20025;-48